SLRI/RIB METAR and TAF weather

Enter ICAO airport designator
Station Type Date Time Source
SLRI METAR 2020/09/20 13:00 UTC NOAA

SLRI 201300Z 10005KT 5000 FU SCT080 BKN200 28/23 Q1013


Station Type Date Time Source
SLRI Decoded METAR 2020/09/20 13:00 UTC NOAA

Riberalta, Bolivia (SLRI) 11-00S 066-07W
Sep 20, 2020 - 09:00 AM EDT / 2020.09.20 1300 UTC
Wind: from the E (100 degrees) at 6 MPH (5 KT):0
Visibility: 3 mile(s):0
Sky conditions: mostly cloudy
Weather: smoke
Temperature: 82 F (28 C)
Dew Point: 73 F (23 C)
Relative Humidity: 74%
Pressure (altimeter): 29.91 in. Hg (1013 hPa)
ob: SLRI 201300Z 10005KT 5000 FU SCT080 BKN200 28/23 Q1013
cycle: 13

Station Type Date Time Source
SLRI TAF 2015/11/18 00:29 UTC NOAA

TAF SLRI 182200Z 1900/1924 00000KT 9999 FEW015 TX37/1919Z TN23/1910Z
BECMG 1912/1914 33011KT SCT020
TEMPO 1919/1922 8000 VCSH FEW020 FEW023CB BKN080

Example: see airport list